Time;durP1;ratioP1;P1;durP2;ratioP2;P2;SDS_P1;SDS_P2;PMS_P1;PMS_P2;Temp;Humidity;BMP_temperature;BMP_pressure;BME280_temperature;BME280_humidity;BME280_pressure;Samples;Min_cycle;Max_cycle;Signal;HPM_P1;HPM_P2
2022/08/01 00:00:29;;;;;;;2.63;1.67;;;28.80;74.20;;;;;;6368403;22;20117;-76
2022/08/01 00:02:55;;;;;;;2.70;2.20;;;28.80;74.40;;;;;;6368478;22;20051;-76
2022/08/01 00:05:21;;;;;;;7.28;2.75;;;28.80;74.40;;;;;;6340685;22;20006;-75
2022/08/01 00:07:47;;;;;;;2.85;2.22;;;28.80;74.40;;;;;;6368387;22;19998;-75
2022/08/01 00:10:15;;;;;;;4.82;2.00;;;28.70;74.90;;;;;;6367850;22;20485;-76
2022/08/01 00:12:42;;;;;;;2.55;2.17;;;28.70;74.50;;;;;;6367726;22;20002;-76
2022/08/01 00:15:10;;;;;;;4.45;1.85;;;28.70;74.70;;;;;;6368221;22;20053;-77
2022/08/01 00:17:36;;;;;;;2.70;1.70;;;28.70;75.10;;;;;;6340717;22;20352;-75
2022/08/01 00:20:05;;;;;;;3.25;2.10;;;28.70;75.30;;;;;;6368194;22;20056;-75
2022/08/01 00:22:32;;;;;;;3.38;1.75;;;28.70;75.60;;;;;;6367691;22;20125;-75
2022/08/01 00:24:57;;;;;;;4.20;2.38;;;28.70;75.80;;;;;;6368305;22;20309;-74
2022/08/01 00:27:23;;;;;;;2.47;2.22;;;28.60;76.50;;;;;;6368017;22;20010;-75
2022/08/01 00:29:49;;;;;;;2.28;1.73;;;28.60;76.60;;;;;;6368176;22;19999;-74
2022/08/01 00:32:15;;;;;;;3.13;2.10;;;28.50;76.80;;;;;;6367627;22;20427;-74
2022/08/01 00:34:40;;;;;;;3.28;1.80;;;28.50;76.90;;;;;;6368263;22;20069;-74
2022/08/01 00:37:06;;;;;;;1.85;1.75;;;28.50;77.10;;;;;;6367966;22;20005;-74
2022/08/01 00:39:32;;;;;;;2.17;1.70;;;28.50;77.20;;;;;;6339763;22;20080;-75
2022/08/01 00:41:59;;;;;;;2.05;1.85;;;28.50;77.30;;;;;;6368170;22;20006;-75
2022/08/01 00:44:26;;;;;;;2.15;1.73;;;28.50;77.50;;;;;;6340764;22;20010;-74
2022/08/01 00:46:51;;;;;;;5.18;2.30;;;28.50;77.60;;;;;;6368115;22;20143;-75
2022/08/01 00:49:17;;;;;;;5.32;2.15;;;28.50;77.80;;;;;;6367794;22;20034;-75
2022/08/01 00:51:43;;;;;;;3.75;1.90;;;28.50;77.90;;;;;;6367873;22;20430;-75
2022/08/01 00:54:09;;;;;;;2.33;1.80;;;28.50;78.10;;;;;;6367728;22;19998;-75
2022/08/01 00:56:34;;;;;;;2.00;1.80;;;28.50;78.10;;;;;;6368264;22;20006;-76
2022/08/01 00:59:00;;;;;;;2.60;2.00;;;28.50;78.20;;;;;;6368663;22;20358;-76
2022/08/01 01:01:26;;;;;;;4.32;1.75;;;28.40;78.20;;;;;;6368347;22;20406;-76
2022/08/01 01:03:52;;;;;;;2.75;2.42;;;28.40;78.30;;;;;;6367685;22;20007;-76
2022/08/01 01:06:42;;;;;;;4.85;3.42;;;28.40;78.40;;;;;;6367858;22;20107;-75
2022/08/01 01:09:25;;;;;;;4.45;3.25;;;28.30;78.50;;;;;;6368359;22;19994;-76
2022/08/01 01:11:51;;;;;;;2.80;2.55;;;28.10;78.70;;;;;;6368080;22;19994;-76
2022/08/01 01:14:32;;;;;;;4.88;3.20;;;28.10;78.80;;;;;;6366928;22;19998;-76
2022/08/01 01:17:00;;;;;;;8.73;3.42;;;28.10;79.10;;;;;;6367713;22;20047;-76
2022/08/01 01:19:30;;;;;;;4.20;3.17;;;28.00;78.80;;;;;;6368459;22;20036;-75
2022/08/01 01:22:24;;;;;;;6.85;5.25;;;28.00;79.00;;;;;;6368159;22;19998;-76
2022/08/01 01:25:14;;;;;;;5.38;3.13;;;27.90;79.70;;;;;;6367764;22;20005;-77
2022/08/01 01:28:15;;;;;;;;;;;27.90;79.20;;;;;;6367612;22;20016;-76
2022/08/01 01:30:44;;;;;;;4.40;3.33;;;27.90;79.40;;;;;;6239923;23;20360;-77
2022/08/01 01:33:12;;;;;;;4.20;3.78;;;27.90;79.50;;;;;;6344240;22;19998;-78
2022/08/01 01:35:46;;;;;;;4.80;3.75;;;27.80;79.40;;;;;;6367914;22;19998;-78
2022/08/01 01:38:21;;;;;;;3.65;3.35;;;27.80;79.30;;;;;;6369420;22;20077;-79
2022/08/01 01:40:50;;;;;;;5.07;4.57;;;27.80;79.50;;;;;;6370696;22;20092;-79
2022/08/01 01:43:17;;;;;;;5.90;4.55;;;27.70;79.80;;;;;;6369358;22;20017;-78
2022/08/01 01:45:45;;;;;;;5.60;4.25;;;27.70;79.80;;;;;;6368586;22;20030;-78
2022/08/01 01:48:16;;;;;;;6.13;4.85;;;27.60;80.00;;;;;;6369630;22;20429;-78
2022/08/01 01:50:44;;;;;;;5.35;4.85;;;27.60;80.10;;;;;;6369910;22;19998;-78
2022/08/01 01:53:13;;;;;;;6.18;5.07;;;27.70;80.20;;;;;;6369632;22;20022;-78
2022/08/01 01:55:40;;;;;;;6.22;4.22;;;27.60;80.20;;;;;;6367931;22;20009;-78
2022/08/01 01:58:08;;;;;;;6.47;4.75;;;27.70;80.30;;;;;;6368881;22;19999;-78
2022/08/01 02:00:36;;;;;;;6.25;4.63;;;27.70;80.40;;;;;;6341651;22;20309;-77
2022/08/01 02:03:07;;;;;;;5.22;4.75;;;27.70;80.50;;;;;;6369558;22;20025;-76
2022/08/01 02:05:34;;;;;;;6.20;4.03;;;27.70;80.60;;;;;;6368952;22;20003;-76
2022/08/01 02:08:02;;;;;;;7.40;6.13;;;27.60;80.60;;;;;;6369329;22;20020;-76
2022/08/01 02:10:29;;;;;;;8.65;4.63;;;27.60;81.30;;;;;;6369576;22;20073;-76
2022/08/01 02:12:59;;;;;;;6.05;4.63;;;27.60;81.20;;;;;;6368833;22;19998;-76
2022/08/01 02:15:27;;;;;;;5.20;4.60;;;27.60;81.10;;;;;;6369150;22;20034;-76
2022/08/01 02:17:56;;;;;;;5.55;4.97;;;27.60;81.30;;;;;;6368779;22;20324;-75
2022/08/01 02:20:22;;;;;;;8.35;5.43;;;27.60;81.30;;;;;;6368478;22;20013;-75
2022/08/01 02:22:55;;;;;;;5.78;5.10;;;27.60;81.40;;;;;;6368753;22;20009;-77
2022/08/01 02:25:29;;;;;;;5.70;4.82;;;27.60;81.50;;;;;;6369552;22;20085;-77
2022/08/01 02:28:07;;;;;;;5.30;4.45;;;27.60;81.50;;;;;;6375603;22;20010;-78
2022/08/01 02:30:37;;;;;;;6.22;5.43;;;27.60;81.50;;;;;;6392919;22;20003;-79
2022/08/01 02:33:13;;;;;;;8.30;6.95;;;27.60;81.60;;;;;;6368920;22;20035;-79
2022/08/01 02:35:41;;;;;;;9.15;5.75;;;27.60;81.70;;;;;;6341211;22;20718;-77
2022/08/01 02:38:11;;;;;;;7.75;6.90;;;27.60;81.50;;;;;;6369846;22;20092;-78
2022/08/01 02:40:40;;;;;;;11.47;7.20;;;27.60;81.70;;;;;;6369771;22;20409;-78
2022/08/01 02:43:08;;;;;;;8.00;6.77;;;27.50;81.80;;;;;;6341387;22;19998;-78
2022/08/01 02:45:37;;;;;;;10.38;6.65;;;27.50;81.70;;;;;;6368825;22;20055;-78
2022/08/01 02:48:09;;;;;;;11.27;9.18;;;27.50;81.70;;;;;;6369143;22;20001;-78
2022/08/01 02:50:37;;;;;;;7.65;6.75;;;27.40;82.10;;;;;;6368984;22;20074;-77
2022/08/01 02:53:05;;;;;;;8.75;7.63;;;27.40;81.80;;;;;;6368748;22;19994;-77
2022/08/01 02:55:33;;;;;;;8.77;7.32;;;27.40;81.90;;;;;;6368586;22;20003;-78
2022/08/01 02:58:00;;;;;;;8.48;6.90;;;27.40;81.90;;;;;;6368902;22;20073;-77
2022/08/01 03:00:27;;;;;;;7.78;6.97;;;27.40;81.90;;;;;;6368347;22;20002;-78
2022/08/01 03:02:54;;;;;;;8.50;7.65;;;27.40;81.90;;;;;;6368317;22;20025;-78
2022/08/01 03:05:21;;;;;;;9.30;8.20;;;27.40;81.90;;;;;;6368706;22;20028;-78
2022/08/01 03:07:47;;;;;;;8.10;7.28;;;27.40;82.00;;;;;;6341032;22;20031;-78
2022/08/01 03:10:15;;;;;;;10.07;8.43;;;27.40;82.00;;;;;;6367551;22;20003;-78
2022/08/01 03:12:43;;;;;;;12.32;7.22;;;27.30;82.20;;;;;;6368946;22;20096;-77
2022/08/01 03:15:10;;;;;;;9.68;8.40;;;27.30;82.20;;;;;;6370026;22;19999;-77
2022/08/01 03:17:37;;;;;;;9.00;7.43;;;27.30;82.20;;;;;;6369339;22;19994;-78
2022/08/01 03:20:04;;;;;;;8.07;7.35;;;27.30;82.20;;;;;;6366935;22;20006;-77
2022/08/01 03:22:32;;;;;;;9.75;7.43;;;27.30;82.20;;;;;;6368402;22;20006;-77
2022/08/01 03:24:59;;;;;;;11.95;7.03;;;27.30;82.20;;;;;;6368418;22;20024;-78
2022/08/01 03:27:25;;;;;;;8.38;7.00;;;27.30;82.20;;;;;;6368465;22;20320;-78
2022/08/01 03:29:54;;;;;;;11.98;9.65;;;27.40;82.20;;;;;;6368536;22;20363;-78
2022/08/01 03:32:21;;;;;;;11.07;7.22;;;27.30;82.60;;;;;;6368216;22;20002;-77
2022/08/01 03:34:47;;;;;;;10.65;8.18;;;27.20;82.30;;;;;;6368790;22;20001;-78
2022/08/01 03:37:34;;;;;;;11.10;10.00;;;27.20;82.60;;;;;;6368584;22;20002;-78
2022/08/01 03:40:23;;;;;;;10.77;9.25;;;27.10;82.70;;;;;;6368187;22;20051;-76
2022/08/01 03:42:53;;;;;;;10.77;8.48;;;27.10;82.90;;;;;;6368612;22;20002;-77
2022/08/01 03:45:23;;;;;;;11.07;8.50;;;27.00;82.70;;;;;;6368329;22;20056;-77
2022/08/01 03:47:55;;;;;;;10.17;8.00;;;27.00;82.80;;;;;;6368463;22;19994;-77
2022/08/01 03:50:24;;;;;;;10.85;8.48;;;27.00;82.90;;;;;;6367687;22;19995;-76
2022/08/01 03:52:52;;;;;;;9.60;8.27;;;27.00;82.90;;;;;;6368737;22;19998;-77
2022/08/01 03:55:22;;;;;;;13.05;9.52;;;27.00;82.90;;;;;;6368210;22;20006;-77
2022/08/01 03:57:48;;;;;;;9.48;8.48;;;27.00;83.00;;;;;;6368016;22;20005;-77
2022/08/01 04:00:18;;;;;;;10.43;9.27;;;27.00;83.00;;;;;;6367804;22;20007;-77
2022/08/01 04:02:47;;;;;;;12.32;8.82;;;27.00;83.10;;;;;;6367922;22;20157;-77
2022/08/01 04:05:18;;;;;;;10.18;8.98;;;27.00;83.10;;;;;;6368072;22;20002;-77
2022/08/01 04:07:55;;;;;;;12.95;9.63;;;27.00;83.00;;;;;;6368411;22;20035;-76
2022/08/01 04:10:22;;;;;;;16.58;13.75;;;27.00;83.10;;;;;;6368034;22;19995;-76
2022/08/01 04:12:48;;;;;;;11.40;9.82;;;26.90;83.10;;;;;;6368072;22;20455;-76
2022/08/01 04:15:14;;;;;;;11.45;10.25;;;26.90;83.00;;;;;;6368133;22;19998;-76
2022/08/01 04:17:40;;;;;;;18.10;9.65;;;26.90;83.00;;;;;;6368226;22;20005;-76
2022/08/01 04:20:06;;;;;;;12.55;10.65;;;26.90;83.00;;;;;;6367916;22;20010;-77
2022/08/01 04:22:31;;;;;;;15.07;12.63;;;26.90;83.00;;;;;;6367443;22;20424;-76
2022/08/01 04:25:00;;;;;;;13.25;11.18;;;26.80;83.10;;;;;;6368354;22;20009;-76
2022/08/01 04:27:32;;;;;;;11.68;10.05;;;26.80;83.00;;;;;;6368139;22;20010;-76
2022/08/01 04:30:00;;;;;;;13.88;9.88;;;26.80;83.20;;;;;;6367351;22;20038;-76
2022/08/01 04:32:30;;;;;;;13.52;11.02;;;26.80;83.20;;;;;;6367700;22;20069;-77
2022/08/01 04:34:58;;;;;;;11.75;9.68;;;26.70;83.50;;;;;;6368622;22;20481;-77
2022/08/01 04:37:25;;;;;;;11.30;10.13;;;26.80;83.70;;;;;;6368615;22;19995;-78
2022/08/01 04:39:52;;;;;;;11.38;10.23;;;26.70;83.70;;;;;;6367957;22;20424;-77
2022/08/01 04:42:18;;;;;;;13.10;10.63;;;26.70;83.60;;;;;;6368492;22;20111;-75
2022/08/01 04:44:45;;;;;;;10.88;9.77;;;26.70;83.60;;;;;;6368173;22;20388;-75
2022/08/01 04:47:13;;;;;;;11.75;10.55;;;26.70;83.80;;;;;;6368357;22;20395;-76
2022/08/01 04:49:40;;;;;;;11.75;10.48;;;26.70;83.90;;;;;;6340236;22;20377;-76
2022/08/01 04:52:06;;;;;;;9.98;8.80;;;26.70;84.00;;;;;;6368903;22;20442;-76
2022/08/01 04:54:36;;;;;;;10.80;8.45;;;26.70;83.90;;;;;;6369156;22;19998;-74
2022/08/01 04:57:08;;;;;;;10.77;9.15;;;26.70;83.90;;;;;;6367469;22;20006;-75
2022/08/01 04:59:40;;;;;;;9.60;8.48;;;26.80;83.90;;;;;;6369334;22;20003;-75
2022/08/01 05:02:11;;;;;;;11.60;9.23;;;26.70;84.00;;;;;;6337615;22;20009;-76
2022/08/01 05:04:38;;;;;;;11.05;9.95;;;26.70;83.80;;;;;;6367083;22;20002;-75
2022/08/01 05:07:04;;;;;;;10.70;8.80;;;26.70;83.90;;;;;;6367802;22;20166;-75
2022/08/01 05:09:30;;;;;;;10.38;9.35;;;26.80;84.00;;;;;;6367489;22;19999;-75
2022/08/01 05:11:58;;;;;;;11.40;9.40;;;26.80;83.90;;;;;;6368430;22;20301;-75
2022/08/01 05:14:25;;;;;;;9.70;8.70;;;26.90;83.90;;;;;;6368227;22;19994;-75
2022/08/01 05:16:52;;;;;;;10.07;9.05;;;26.90;83.70;;;;;;6369687;22;20440;-74
2022/08/01 05:19:17;;;;;;;8.93;8.07;;;26.90;83.70;;;;;;6367633;22;20012;-74
2022/08/01 05:21:43;;;;;;;11.30;9.02;;;26.90;83.50;;;;;;6368829;22;20053;-74
2022/08/01 05:24:09;;;;;;;12.70;10.65;;;26.90;83.40;;;;;;6369260;22;20481;-74
2022/08/01 05:26:34;;;;;;;12.93;11.20;;;26.90;83.70;;;;;;6368863;22;20006;-74
2022/08/01 05:29:00;;;;;;;10.90;9.68;;;26.80;83.90;;;;;;6369196;22;20073;-74
2022/08/01 05:31:26;;;;;;;20.25;14.13;;;26.80;83.70;;;;;;6366964;22;20048;-74
2022/08/01 05:33:52;;;;;;;11.85;10.40;;;26.60;84.10;;;;;;6367852;22;20325;-74
2022/08/01 05:36:18;;;;;;;10.20;8.65;;;26.40;84.60;;;;;;6369096;22;20010;-79
2022/08/01 05:38:43;;;;;;;9.20;8.30;;;26.40;85.00;;;;;;6367803;22;20005;-79
2022/08/01 05:41:11;;;;;;;11.57;7.28;;;26.40;84.50;;;;;;6341413;22;20007;-78
2022/08/01 05:43:36;;;;;;;15.15;12.52;;;26.40;84.20;;;;;;6368932;22;20424;-75
2022/08/01 05:46:02;;;;;;;15.80;14.20;;;26.40;84.30;;;;;;6368083;22;20013;-71
2022/08/01 05:48:28;;;;;;;8.23;7.38;;;26.40;84.40;;;;;;6369840;22;20073;-80
2022/08/01 05:50:54;;;;;;;8.05;6.78;;;26.40;84.40;;;;;;6369391;22;20424;-81
2022/08/01 05:53:20;;;;;;;7.63;6.82;;;26.50;84.10;;;;;;6367240;22;20620;-81
2022/08/01 05:55:46;;;;;;;7.65;6.38;;;26.50;84.00;;;;;;6368145;22;20029;-73
2022/08/01 05:58:11;;;;;;;6.75;5.47;;;26.60;83.80;;;;;;6369754;22;20006;-73
2022/08/01 06:00:37;;;;;;;7.85;7.05;;;26.70;83.80;;;;;;6371855;22;20005;-74
2022/08/01 06:03:03;;;;;;;22.67;12.45;;;26.80;83.80;;;;;;6371964;22;20294;-73
2022/08/01 06:05:28;;;;;;;10.63;8.90;;;26.80;83.80;;;;;;6370667;22;20424;-73
2022/08/01 06:07:54;;;;;;;9.10;7.32;;;26.60;84.00;;;;;;6371581;22;20051;-73
2022/08/01 06:10:19;;;;;;;7.00;6.30;;;26.60;83.80;;;;;;6371686;22;19994;-73
2022/08/01 06:12:45;;;;;;;7.22;6.53;;;26.70;83.80;;;;;;6371625;22;19994;-73
2022/08/01 06:15:11;;;;;;;7.70;6.40;;;26.80;83.80;;;;;;6371167;22;19995;-73
2022/08/01 06:17:38;;;;;;;6.53;5.93;;;26.80;83.70;;;;;;6371493;22;19998;-73
2022/08/01 06:20:06;;;;;;;7.50;5.82;;;26.90;83.80;;;;;;6371466;22;20022;-73
2022/08/01 06:22:31;;;;;;;8.35;6.22;;;27.00;83.80;;;;;;6370797;22;19998;-73
2022/08/01 06:24:57;;;;;;;10.73;6.53;;;27.10;83.70;;;;;;6371093;22;20022;-73
2022/08/01 06:27:24;;;;;;;5.60;4.75;;;27.10;83.40;;;;;;6371352;22;20055;-73
2022/08/01 06:30:18;;;;;;;7.25;5.07;;;27.10;83.20;;;;;;6371427;22;20325;-73
2022/08/01 06:32:36;;;;;;;6.03;4.88;;;27.20;82.90;;;;;;6365157;22;20066;-73
2022/08/01 06:35:02;;;;;;;7.88;5.13;;;27.20;82.80;;;;;;6370624;22;20414;-73
2022/08/01 06:37:30;;;;;;;6.07;4.50;;;27.20;82.70;;;;;;6371142;22;20056;-73
2022/08/01 06:39:56;;;;;;;5.80;5.15;;;27.30;82.70;;;;;;6371406;22;20333;-73
2022/08/01 06:42:21;;;;;;;6.20;4.60;;;27.30;82.70;;;;;;6371187;22;20003;-73
2022/08/01 06:44:47;;;;;;;5.15;4.55;;;27.40;82.60;;;;;;6370837;22;20081;-73
2022/08/01 06:47:13;;;;;;;5.43;4.45;;;27.40;82.70;;;;;;6370872;22;20010;-74
2022/08/01 06:49:39;;;;;;;5.95;4.47;;;27.40;82.80;;;;;;6370995;22;19999;-73
2022/08/01 06:52:04;;;;;;;4.70;3.83;;;27.50;82.70;;;;;;6371178;22;20002;-73
2022/08/01 06:54:30;;;;;;;5.88;4.38;;;27.50;82.70;;;;;;6370856;22;19994;-73
2022/08/01 06:56:56;;;;;;;4.70;4.03;;;27.60;82.80;;;;;;6370662;22;20021;-73
2022/08/01 06:59:21;;;;;;;5.00;4.13;;;27.60;82.90;;;;;;6371124;22;20009;-73
2022/08/01 07:01:47;;;;;;;3.95;3.55;;;27.60;83.10;;;;;;6371194;22;20061;-73
2022/08/01 07:04:12;;;;;;;3.35;2.97;;;27.70;83.10;;;;;;6370985;22;20006;-74
2022/08/01 07:06:38;;;;;;;3.78;3.40;;;27.80;83.30;;;;;;6370765;22;20332;-73
2022/08/01 07:09:04;;;;;;;5.28;3.67;;;27.80;83.40;;;;;;6370289;22;20324;-73
2022/08/01 07:11:29;;;;;;;4.40;4.00;;;27.90;84.20;;;;;;6370490;22;20095;-73
2022/08/01 07:13:56;;;;;;;3.70;2.90;;;27.90;83.80;;;;;;6370997;22;20002;-73
2022/08/01 07:16:22;;;;;;;4.10;2.75;;;28.00;84.10;;;;;;6370457;22;20029;-73
2022/08/01 07:18:48;;;;;;;4.60;2.90;;;28.00;84.10;;;;;;6371066;22;20002;-73
2022/08/01 07:21:13;;;;;;;4.32;2.72;;;28.10;84.20;;;;;;6371315;22;20013;-74
2022/08/01 07:23:39;;;;;;;3.00;2.70;;;28.20;84.30;;;;;;6370427;22;20009;-75
2022/08/01 07:26:06;;;;;;;3.92;3.15;;;28.30;84.30;;;;;;6370505;22;20024;-74
2022/08/01 07:28:32;;;;;;;3.38;2.33;;;28.30;84.40;;;;;;6370165;22;20311;-74
2022/08/01 07:30:57;;;;;;;6.63;2.92;;;28.30;84.30;;;;;;6367781;22;20018;-74
2022/08/01 07:33:23;;;;;;;5.60;2.42;;;28.40;84.30;;;;;;6368695;22;20074;-75
2022/08/01 07:35:49;;;;;;;2.50;2.30;;;28.50;84.30;;;;;;6368172;22;20078;-75
2022/08/01 07:38:16;;;;;;;4.40;2.42;;;28.50;84.30;;;;;;6369013;22;20013;-74
2022/08/01 07:40:44;;;;;;;4.57;2.60;;;28.60;84.60;;;;;;6369190;22;20115;-75
2022/08/01 07:43:10;;;;;;;3.38;1.90;;;28.70;85.10;;;;;;6368297;22;20056;-74
2022/08/01 07:45:35;;;;;;;3.17;2.30;;;28.70;84.50;;;;;;6367681;22;20351;-77
2022/08/01 07:48:05;;;;;;;2.05;1.88;;;28.80;84.20;;;;;;6368816;22;20088;-76
2022/08/01 07:50:32;;;;;;;1.60;1.50;;;28.80;84.00;;;;;;6368688;22;20047;-77
2022/08/01 07:52:57;;;;;;;4.10;1.55;;;28.90;83.80;;;;;;6368688;22;20381;-81
2022/08/01 07:55:23;;;;;;;3.00;1.70;;;28.90;83.30;;;;;;6368843;22;20054;-79
2022/08/01 07:57:49;;;;;;;2.67;1.65;;;29.00;83.00;;;;;;6368628;22;19998;-81
2022/08/01 08:00:15;;;;;;;2.58;1.50;;;29.10;83.00;;;;;;6340629;22;19998;-79
2022/08/01 08:02:41;;;;;;;2.10;1.52;;;29.10;82.60;;;;;;6368548;22;20069;-78
2022/08/01 08:05:07;;;;;;;1.75;1.25;;;29.10;82.20;;;;;;6368821;22;20029;-80
2022/08/01 08:07:33;;;;;;;2.28;1.73;;;29.20;81.70;;;;;;6368843;22;20002;-79
2022/08/01 08:09:59;;;;;;;1.88;1.73;;;29.30;81.00;;;;;;6368667;22;20433;-78
2022/08/01 08:12:25;;;;;;;2.08;1.52;;;29.40;80.80;;;;;;6340525;22;19998;-80
2022/08/01 08:14:50;;;;;;;2.35;1.20;;;29.40;80.70;;;;;;6340631;22;20006;-78
2022/08/01 08:17:16;;;;;;;3.50;1.33;;;29.50;80.00;;;;;;6368630;22;20007;-79
2022/08/01 08:19:42;;;;;;;1.77;1.67;;;29.50;79.40;;;;;;6368476;22;19994;-79
2022/08/01 08:22:08;;;;;;;3.90;1.60;;;29.60;79.10;;;;;;6368156;22;20017;-79
2022/08/01 08:24:35;;;;;;;4.13;2.50;;;29.60;79.00;;;;;;6367804;22;20043;-79
2022/08/01 09:01:12;;;;;;;2.90;1.70;;;29.60;73.30;;;;;;6225606;22;1388184;-79
2022/08/01 09:03:39;;;;;;;2.50;2.03;;;30.30;71.40;;;;;;6282909;22;20004;-78
2022/08/01 09:06:05;;;;;;;1.90;1.75;;;30.40;71.80;;;;;;6255575;22;20004;-80
2022/08/01 09:08:32;;;;;;;3.05;2.03;;;30.50;71.50;;;;;;6284074;22;19999;-79
2022/08/01 09:10:57;;;;;;;5.57;2.05;;;30.60;70.90;;;;;;6283922;22;20010;-79
2022/08/01 09:13:24;;;;;;;2.42;1.92;;;30.60;69.80;;;;;;6283784;22;20000;-81
2022/08/01 09:15:55;;;;;;;12.88;3.17;;;30.70;70.40;;;;;;6284008;22;19999;-77
2022/08/01 09:18:31;;;;;;;3.88;2.40;;;30.80;70.00;;;;;;6283787;22;19999;-77
2022/08/01 09:21:06;;;;;;;4.57;2.00;;;30.80;70.20;;;;;;6284788;22;20000;-79
2022/08/01 09:23:33;;;;;;;2.75;1.45;;;30.90;69.90;;;;;;6283478;22;20000;-81
2022/08/01 09:25:59;;;;;;;3.03;1.30;;;31.00;70.30;;;;;;6282284;22;20007;-82
2022/08/01 09:28:29;;;;;;;6.13;2.70;;;31.10;70.00;;;;;;6282850;22;20326;-80
2022/08/01 09:30:58;;;;;;;3.15;1.98;;;31.20;69.50;;;;;;6281584;22;20003;-82
2022/08/01 09:33:25;;;;;;;1.85;1.55;;;31.30;69.80;;;;;;6283084;22;20003;-82
2022/08/01 09:35:56;;;;;;;3.78;1.65;;;31.40;69.50;;;;;;6282575;22;20000;-82
2022/08/01 09:38:28;;;;;;;1.45;1.35;;;31.40;69.10;;;;;;6283567;22;20325;-82
2022/08/01 09:41:00;;;;;;;3.08;1.38;;;31.60;68.70;;;;;;6283348;22;20067;-81
2022/08/01 09:43:28;;;;;;;2.38;1.00;;;31.70;67.80;;;;;;6256496;22;20360;-82
2022/08/01 09:45:55;;;;;;;2.03;1.60;;;31.80;68.00;;;;;;6282750;22;20440;-81
2022/08/01 09:48:22;;;;;;;4.22;1.35;;;31.80;66.80;;;;;;6282877;22;20320;-82
2022/08/01 09:50:52;;;;;;;2.00;1.65;;;31.90;66.40;;;;;;6283561;22;20074;-81
2022/08/01 09:53:19;;;;;;;1.98;1.42;;;32.00;65.50;;;;;;6282284;22;19999;-81
2022/08/01 09:55:45;;;;;;;1.50;1.20;;;32.10;65.40;;;;;;6255738;22;20026;-82
2022/08/01 09:58:11;;;;;;;1.55;0.90;;;32.10;64.50;;;;;;6282721;22;20000;-81
2022/08/01 10:00:39;;;;;;;2.72;1.20;;;32.20;64.40;;;;;;6279594;22;20019;-81
2022/08/01 10:03:25;;;;;;;1.90;1.40;;;32.30;64.00;;;;;;6275362;22;20053;-81
2022/08/01 10:05:53;;;;;;;1.70;1.25;;;32.40;62.90;;;;;;6275580;22;20003;-81
2022/08/01 10:08:22;;;;;;;2.40;1.63;;;32.50;62.30;;;;;;6274724;22;20011;-82
2022/08/01 10:11:11;;;;;;;2.13;1.33;;;32.50;60.90;;;;;;6275307;22;20057;-81
2022/08/01 10:13:37;;;;;;;2.87;1.20;;;32.70;61.40;;;;;;6276224;22;20026;-82
2022/08/01 10:16:05;;;;;;;1.67;1.10;;;32.80;61.30;;;;;;6248489;22;20231;-82
2022/08/01 10:18:33;;;;;;;1.92;1.15;;;32.90;61.00;;;;;;6276226;22;19996;-82
2022/08/01 10:21:03;;;;;;;1.10;0.88;;;33.00;60.80;;;;;;6247920;22;20482;-82
2022/08/01 10:23:33;;;;;;;;;;;33.10;60.30;;;;;;6276426;22;20026;-82
2022/08/01 10:25:59;;;;;;;;;;;33.20;58.90;;;;;;6276814;22;20332;-82
2022/08/01 10:28:26;;;;;;;1.60;0.90;;;33.40;57.90;;;;;;6274864;22;19899;-81
2022/08/01 10:30:52;;;;;;;1.40;0.80;;;33.50;57.50;;;;;;6275004;22;20015;-80
2022/08/01 10:33:21;;;;;;;4.32;1.10;;;33.50;56.80;;;;;;6276074;22;20476;-80
2022/08/01 10:35:47;;;;;;;2.05;1.00;;;33.60;56.10;;;;;;6275673;22;20000;-80
2022/08/01 10:38:13;;;;;;;2.20;1.08;;;33.80;55.40;;;;;;6274442;22;20053;-81
2022/08/01 10:40:41;;;;;;;1.02;0.57;;;33.90;54.40;;;;;;6276245;22;19999;-81
2022/08/01 10:43:08;;;;;;;1.13;0.80;;;34.00;53.50;;;;;;6276311;22;20028;-80
2022/08/01 10:45:35;;;;;;;1.25;0.98;;;34.00;53.00;;;;;;6275845;22;20021;-81
2022/08/01 10:48:13;;;;;;;1.33;0.80;;;34.10;52.40;;;;;;6275172;22;20010;-81
2022/08/01 10:50:46;;;;;;;1.15;0.88;;;34.20;51.80;;;;;;6245420;22;20401;-81
2022/08/01 10:53:18;;;;;;;1.13;0.70;;;34.30;52.20;;;;;;6272131;22;20102;-81
2022/08/01 10:55:52;;;;;;;2.95;0.75;;;34.40;50.10;;;;;;6275111;22;20314;-81
2022/08/01 10:58:29;;;;;;;3.10;0.80;;;34.50;50.80;;;;;;6274483;22;20455;-81
2022/08/01 11:01:19;;;;;;;0.80;0.75;;;34.60;50.90;;;;;;6275876;22;20054;-79
2022/08/01 11:04:00;;;;;;;0.82;0.82;;;34.70;50.80;;;;;;6274943;22;20019;-81
2022/08/01 11:06:32;;;;;;;0.88;0.80;;;34.90;51.30;;;;;;6273884;22;20010;-81
2022/08/01 11:08:59;;;;;;;2.33;1.00;;;35.00;50.70;;;;;;6275399;22;20000;-81
2022/08/01 11:11:25;;;;;;;1.98;1.20;;;35.00;51.20;;;;;;6274442;22;19996;-81
2022/08/01 11:14:43;;;;;;;1.15;1.00;;;35.10;51.50;;;;;;6273302;22;19996;-81
2022/08/01 11:17:31;;;;;;;1.98;1.10;;;35.20;51.60;;;;;;6247028;22;20057;-81
2022/08/01 11:20:14;;;;;;;1.63;1.10;;;35.40;51.40;;;;;;6273359;22;20007;-79
2022/08/01 11:22:58;;;;;;;2.47;1.00;;;35.50;51.00;;;;;;6276454;22;20429;-79
2022/08/01 11:25:25;;;;;;;1.83;1.10;;;35.70;50.50;;;;;;6276243;22;20057;-80
2022/08/01 11:28:25;;;;;;;1.70;1.10;;;35.80;51.30;;;;;;6273119;22;20011;-80
2022/08/01 11:31:17;;;;;;;2.83;1.08;;;36.10;50.20;;;;;;6269302;22;20042;-79
2022/08/01 11:33:44;;;;;;;2.45;0.90;;;36.20;50.30;;;;;;6269437;22;20112;-81
2022/08/01 11:36:10;;;;;;;0.90;0.80;;;36.50;50.40;;;;;;6270222;22;20083;-80
2022/08/01 11:38:36;;;;;;;3.83;1.05;;;36.70;50.10;;;;;;6271382;22;20073;-80
2022/08/01 11:41:11;;;;;;;1.02;0.90;;;37.00;49.40;;;;;;6270903;22;19995;-80
2022/08/01 11:44:03;;;;;;;1.02;0.80;;;37.30;49.00;;;;;;6270141;22;20003;-80
2022/08/01 11:46:48;;;;;;;2.25;0.82;;;37.80;47.80;;;;;;6261235;22;20008;-81
2022/08/01 11:49:36;;;;;;;1.67;0.93;;;38.20;46.10;;;;;;6270229;22;20384;-81
2022/08/01 11:52:19;;;;;;;1.23;0.80;;;38.50;47.00;;;;;;6271068;22;20004;-80
2022/08/01 11:54:50;;;;;;;1.00;0.90;;;38.90;46.80;;;;;;6270610;22;20153;-80
2022/08/01 11:57:30;;;;;;;1.20;0.80;;;39.00;45.90;;;;;;6270579;22;20006;-81
2022/08/01 11:59:57;;;;;;;1.50;0.80;;;39.10;44.50;;;;;;6271293;22;20502;-80
2022/08/01 12:02:25;;;;;;;1.17;1.08;;;39.20;45.70;;;;;;6270812;22;20018;-80
2022/08/01 12:04:57;;;;;;;1.50;1.10;;;39.40;45.40;;;;;;6243755;22;20081;-80
2022/08/01 12:07:25;;;;;;;1.48;0.90;;;39.60;44.80;;;;;;6269582;22;20004;-81
2022/08/01 12:10:14;;;;;;;1.98;0.82;;;39.70;45.20;;;;;;6270953;22;20003;-81
2022/08/01 12:12:46;;;;;;;1.00;0.90;;;39.70;43.80;;;;;;6243455;22;20027;-80
2022/08/01 12:15:12;;;;;;;3.42;1.20;;;39.70;45.10;;;;;;6270741;22;20043;-80
2022/08/01 12:17:39;;;;;;;2.88;1.00;;;39.70;43.80;;;;;;6270477;22;20023;-80
2022/08/01 12:20:08;;;;;;;1.58;0.93;;;39.80;44.50;;;;;;6271283;22;20058;-77
2022/08/01 12:22:34;;;;;;;1.52;0.82;;;40.00;44.00;;;;;;6272123;22;20426;-81
2022/08/01 12:25:08;;;;;;;1.17;1.00;;;40.00;43.90;;;;;;6271352;22;20004;-78
2022/08/01 12:27:35;;;;;;;2.08;0.70;;;40.20;43.10;;;;;;6271583;22;20110;-77
2022/08/01 12:30:01;;;;;;;2.17;1.05;;;40.40;43.20;;;;;;6271619;22;20011;-76
2022/08/01 12:32:30;;;;;;;1.95;1.30;;;40.50;42.50;;;;;;6244721;22;20007;-77
2022/08/01 12:35:00;;;;;;;;;;;40.50;42.50;;;;;;6270605;22;20029;-77
2022/08/01 12:37:26;;;;;;;1.73;1.00;;;40.70;42.00;;;;;;6270959;22;19910;-77
2022/08/01 12:39:52;;;;;;;2.05;1.10;;;40.70;42.20;;;;;;6271663;22;20004;-77
2022/08/01 12:42:18;;;;;;;1.02;0.80;;;40.60;42.20;;;;;;6271263;22;20007;-77
2022/08/01 12:44:47;;;;;;;0.98;0.93;;;40.70;42.50;;;;;;6271704;22;20007;-76
2022/08/01 12:47:14;;;;;;;1.30;0.90;;;40.70;40.00;;;;;;6274091;22;20303;-77
2022/08/01 12:49:42;;;;;;;2.63;0.90;;;40.70;41.30;;;;;;6273785;22;20069;-76
2022/08/01 12:52:08;;;;;;;1.30;0.95;;;40.80;41.30;;;;;;6274656;22;20049;-77
2022/08/01 12:54:59;;;;;;;1.55;0.90;;;40.80;41.20;;;;;;6273642;22;20011;-77
2022/08/01 12:57:25;;;;;;;1.88;1.00;;;40.90;40.90;;;;;;6273740;22;20000;-78
2022/08/01 12:59:53;;;;;;;4.65;1.08;;;40.90;41.10;;;;;;6274657;22;20050;-78
2022/08/01 13:02:19;;;;;;;4.45;0.98;;;41.00;40.70;;;;;;6275029;22;20421;-77
2022/08/01 13:04:51;;;;;;;1.58;0.85;;;41.00;40.40;;;;;;6274607;22;20360;-78
2022/08/01 13:07:17;;;;;;;2.17;0.60;;;41.00;39.30;;;;;;6274638;22;20004;-78
2022/08/01 13:09:51;;;;;;;2.88;0.70;;;40.90;39.70;;;;;;6274678;22;20000;-78
2022/08/01 13:12:17;;;;;;;4.05;0.73;;;40.80;39.10;;;;;;6274923;22;20006;-78
2022/08/01 13:14:42;;;;;;;2.22;0.88;;;40.70;39.70;;;;;;6273788;22;20086;-78
2022/08/01 13:17:08;;;;;;;1.00;0.60;;;40.70;38.60;;;;;;6274494;22;20010;-82
2022/08/01 13:19:44;;;;;;;0.93;0.50;;;40.60;39.80;;;;;;6276190;22;20003;-77
2022/08/01 13:22:10;;;;;;;1.08;0.80;;;40.50;39.70;;;;;;6276591;22;20034;-79
2022/08/01 13:24:35;;;;;;;1.45;0.75;;;40.40;39.70;;;;;;6276276;22;20000;-79
2022/08/01 13:27:03;;;;;;;1.25;0.60;;;40.40;39.00;;;;;;6249376;22;20330;-79
2022/08/01 13:29:38;;;;;;;1.55;1.00;;;40.20;38.90;;;;;;6276323;22;20432;-81